createdAt,value
2023-05-07T00:00:24.583Z,46.15
2023-05-07T00:02:51.770Z,46.22
2023-05-07T00:05:19.313Z,46.39
2023-05-07T00:07:48.142Z,46.47
2023-05-07T00:10:15.348Z,46.53
2023-05-07T00:12:42.511Z,46.51
2023-05-07T00:15:10.301Z,46.66
2023-05-07T00:17:37.761Z,46.97
2023-05-07T00:20:06.206Z,46.91
2023-05-07T00:22:33.568Z,46.86
2023-05-07T00:25:01.527Z,46.88
2023-05-07T00:27:28.705Z,46.71
2023-05-07T00:29:55.936Z,46.90
2023-05-07T00:32:23.102Z,46.48
2023-05-07T00:34:50.674Z,46.51
2023-05-07T00:37:17.798Z,46.62
2023-05-07T00:39:44.965Z,46.70
2023-05-07T00:42:12.109Z,46.75
2023-05-07T00:44:39.259Z,46.74
2023-05-07T00:47:07.334Z,46.62
2023-05-07T00:49:44.417Z,46.72
2023-05-07T00:52:17.555Z,46.65
2023-05-07T00:54:44.673Z,46.54
2023-05-07T00:57:12.625Z,46.62
2023-05-07T00:59:39.878Z,46.74
2023-05-07T01:02:07.036Z,46.67
2023-05-07T01:04:34.249Z,46.61
2023-05-07T01:07:02.220Z,46.65
2023-05-07T01:09:29.925Z,46.55
2023-05-07T01:11:58.612Z,46.20
2023-05-07T01:14:25.973Z,45.86
2023-05-07T01:16:53.157Z,46.02
2023-05-07T01:19:21.405Z,45.96
2023-05-07T01:21:49.478Z,46.29
2023-05-07T01:24:17.966Z,46.54
2023-05-07T01:26:48.331Z,46.67
2023-05-07T01:29:16.570Z,46.62
2023-05-07T01:31:44.684Z,46.73
2023-05-07T01:34:12.268Z,46.53
2023-05-07T01:36:40.096Z,46.86
2023-05-07T01:39:07.572Z,46.61
2023-05-07T01:41:34.679Z,46.73
2023-05-07T01:44:01.836Z,46.72
2023-05-07T01:46:29.322Z,46.60
2023-05-07T01:48:56.958Z,46.68
2023-05-07T01:51:24.206Z,47.09
2023-05-07T01:53:52.185Z,47.06
2023-05-07T01:56:20.355Z,46.89
2023-05-07T01:58:48.223Z,46.83
2023-05-07T02:01:16.022Z,46.56
2023-05-07T02:03:43.814Z,46.58
2023-05-07T02:06:15.329Z,46.50
2023-05-07T02:08:42.570Z,46.55
2023-05-07T02:11:11.355Z,46.46
2023-05-07T02:13:38.510Z,46.33
2023-05-07T02:16:06.875Z,46.28
2023-05-07T02:18:34.662Z,46.46
2023-05-07T02:21:01.838Z,46.61
2023-05-07T02:23:29.102Z,46.44
2023-05-07T02:25:56.832Z,46.39
2023-05-07T02:28:23.979Z,46.38
2023-05-07T02:30:59.843Z,46.36
2023-05-07T02:33:27.709Z,46.24
2023-05-07T02:35:54.860Z,46.63
2023-05-07T02:38:22.016Z,46.88
2023-05-07T02:40:49.370Z,46.86
2023-05-07T02:43:16.828Z,46.80
2023-05-07T02:45:45.992Z,47.05
2023-05-07T02:48:13.283Z,47.14
2023-05-07T02:50:40.748Z,46.96
2023-05-07T02:53:08.010Z,46.90
2023-05-07T02:55:35.249Z,46.98
2023-05-07T02:58:02.611Z,46.81
2023-05-07T03:00:32.627Z,46.56
2023-05-07T03:03:10.762Z,46.67
2023-05-07T03:05:38.297Z,46.56
2023-05-07T03:08:05.911Z,46.69
2023-05-07T03:10:33.129Z,46.82
2023-05-07T03:13:00.308Z,47.02
2023-05-07T03:15:27.728Z,46.99
2023-05-07T03:17:54.890Z,46.88
2023-05-07T03:20:22.258Z,46.98
2023-05-07T03:22:49.798Z,47.03
2023-05-07T03:25:17.050Z,47.17
2023-05-07T03:27:44.302Z,46.99
2023-05-07T03:30:13.053Z,46.83
2023-05-07T03:32:40.361Z,46.91
2023-05-07T03:35:09.336Z,46.82
2023-05-07T03:37:36.594Z,46.73
2023-05-07T03:40:05.101Z,46.72
2023-05-07T03:42:34.273Z,46.62
2023-05-07T03:45:01.721Z,46.63
2023-05-07T03:47:29.640Z,46.63
2023-05-07T03:49:57.170Z,46.97
2023-05-07T03:52:27.204Z,46.84
2023-05-07T03:54:55.873Z,46.89
2023-05-07T03:57:23.436Z,46.92
2023-05-07T03:59:50.590Z,46.69
2023-05-07T04:02:18.915Z,46.88
2023-05-07T04:04:46.539Z,47.00
2023-05-07T04:07:14.007Z,46.88
2023-05-07T04:09:42.896Z,47.29
2023-05-07T04:12:10.759Z,47.40
2023-05-07T04:14:38.009Z,47.55
2023-05-07T04:17:05.271Z,47.78
2023-05-07T04:19:34.169Z,47.59
2023-05-07T04:22:01.515Z,47.83
2023-05-07T04:24:29.914Z,47.98
2023-05-07T04:26:57.672Z,48.04
2023-05-07T04:29:24.921Z,48.23
2023-05-07T04:31:52.308Z,48.61
2023-05-07T04:34:19.630Z,48.44
2023-05-07T04:36:47.499Z,48.78
2023-05-07T04:39:14.754Z,48.96
2023-05-07T04:41:43.242Z,48.84
2023-05-07T04:44:10.702Z,49.11
2023-05-07T04:46:38.206Z,48.70
2023-05-07T04:49:06.988Z,48.81
2023-05-07T04:51:35.226Z,48.71
2023-05-07T04:54:02.994Z,48.71
2023-05-07T04:56:34.241Z,48.89
2023-05-07T04:59:02.008Z,49.00
2023-05-07T05:01:30.666Z,49.34
2023-05-07T05:03:58.442Z,49.71
2023-05-07T05:06:26.129Z,49.91
2023-05-07T05:08:53.293Z,50.01
2023-05-07T05:11:21.056Z,50.07
2023-05-07T05:13:50.599Z,49.89
2023-05-07T05:16:20.545Z,49.91
2023-05-07T05:18:48.366Z,49.44
2023-05-07T05:21:17.144Z,49.14
2023-05-07T05:23:45.416Z,49.12
2023-05-07T05:26:13.491Z,48.85
2023-05-07T05:28:40.743Z,48.88
2023-05-07T05:31:08.285Z,48.44
2023-05-07T05:33:38.743Z,48.40
2023-05-07T05:36:06.620Z,48.47
2023-05-07T05:38:34.172Z,48.14
2023-05-07T05:41:01.642Z,48.23
2023-05-07T05:43:29.500Z,47.52
2023-05-07T05:45:57.380Z,47.22
2023-05-07T05:48:25.027Z,47.47
2023-05-07T05:50:52.695Z,47.60
2023-05-07T05:53:20.157Z,47.22
2023-05-07T05:55:47.415Z,46.60
2023-05-07T05:58:16.443Z,46.85
2023-05-07T06:00:49.714Z,46.59
2023-05-07T06:03:16.924Z,46.45
2023-05-07T06:05:44.105Z,45.98
2023-05-07T06:08:11.392Z,46.32
2023-05-07T06:10:38.823Z,46.02
2023-05-07T06:13:07.043Z,46.21
2023-05-07T06:15:34.665Z,46.10
2023-05-07T06:18:06.152Z,45.92
2023-05-07T06:20:33.683Z,46.05
2023-05-07T06:23:02.365Z,45.52
2023-05-07T06:25:30.656Z,45.68
2023-05-07T06:27:58.019Z,45.36
2023-05-07T06:30:25.464Z,44.65
2023-05-07T06:32:53.200Z,45.07
2023-05-07T06:35:20.692Z,44.92
2023-05-07T06:37:47.848Z,44.33
2023-05-07T06:40:20.011Z,44.16
2023-05-07T06:42:47.476Z,44.28
2023-05-07T06:45:29.741Z,44.55
2023-05-07T06:47:57.813Z,44.29
2023-05-07T06:50:25.316Z,44.46
2023-05-07T06:52:55.131Z,44.37
2023-05-07T06:55:22.388Z,43.88
2023-05-07T06:57:49.733Z,43.99
2023-05-07T07:00:18.012Z,43.39
2023-05-07T07:02:49.594Z,43.59
2023-05-07T07:05:18.984Z,43.93
2023-05-07T07:07:53.730Z,43.74
2023-05-07T07:10:21.725Z,43.48
2023-05-07T07:12:50.325Z,42.96
2023-05-07T07:15:18.036Z,42.79
2023-05-07T07:17:45.922Z,42.74
2023-05-07T07:20:13.668Z,42.61
2023-05-07T07:22:43.074Z,42.22
2023-05-07T07:25:11.289Z,42.27
2023-05-07T07:27:39.021Z,41.16
2023-05-07T07:30:07.525Z,41.34
2023-05-07T07:32:36.400Z,41.16
2023-05-07T07:35:04.091Z,41.43
2023-05-07T07:37:31.617Z,40.90
2023-05-07T07:39:59.097Z,40.06
2023-05-07T07:42:26.336Z,40.10
2023-05-07T07:44:53.802Z,40.32
2023-05-07T07:47:22.176Z,39.77
2023-05-07T07:49:49.639Z,39.39
2023-05-07T07:52:18.118Z,39.26
2023-05-07T07:54:46.087Z,38.83
2023-05-07T07:57:13.250Z,38.70
2023-05-07T07:59:40.915Z,37.89
2023-05-07T08:02:08.847Z,36.97
2023-05-07T08:04:38.755Z,36.55
2023-05-07T08:07:07.079Z,36.64
2023-05-07T08:09:35.973Z,36.01
2023-05-07T08:12:03.434Z,36.03
2023-05-07T08:14:32.648Z,35.91
2023-05-07T08:17:00.260Z,36.20
2023-05-07T08:19:27.665Z,36.08
2023-05-07T08:21:55.115Z,36.02
2023-05-07T08:24:23.791Z,35.99
2023-05-07T08:26:51.267Z,36.25
2023-05-07T08:29:19.038Z,36.50
2023-05-07T08:33:53.671Z,35.53
2023-05-07T08:36:21.238Z,35.83
2023-05-07T08:38:48.614Z,35.77
2023-05-07T08:41:16.779Z,35.49
2023-05-07T08:43:48.427Z,35.30
2023-05-07T08:46:18.752Z,35.17
2023-05-07T08:48:49.080Z,35.46
2023-05-07T08:51:18.177Z,36.03
2023-05-07T08:53:47.282Z,36.17
2023-05-07T08:56:22.507Z,36.43
2023-05-07T08:58:50.283Z,36.01
2023-05-07T09:01:18.129Z,35.90
2023-05-07T09:03:47.575Z,36.21
2023-05-07T09:06:15.352Z,36.29
2023-05-07T09:08:45.648Z,36.09
2023-05-07T09:11:14.125Z,35.90
2023-05-07T09:13:41.290Z,35.55
2023-05-07T09:16:13.311Z,35.55
2023-05-07T09:18:46.049Z,35.98
2023-05-07T09:21:17.515Z,36.05
2023-05-07T09:23:45.262Z,35.51
2023-05-07T09:26:13.539Z,35.67
2023-05-07T09:28:44.996Z,35.86
2023-05-07T09:31:13.099Z,36.02
2023-05-07T09:33:41.040Z,35.69
2023-05-07T09:36:11.118Z,35.44
2023-05-07T09:38:39.967Z,35.27
2023-05-07T09:41:11.740Z,35.38
2023-05-07T09:43:46.751Z,35.97
2023-05-07T09:46:15.430Z,35.94
2023-05-07T09:48:47.299Z,36.02
2023-05-07T09:51:29.652Z,36.16
2023-05-07T09:53:59.040Z,36.00
2023-05-07T09:56:26.674Z,36.19
2023-05-07T09:58:54.792Z,35.53
2023-05-07T10:01:23.569Z,35.14
2023-05-07T10:03:54.527Z,35.04
2023-05-07T10:06:22.253Z,35.18
2023-05-07T10:08:49.508Z,34.90
2023-05-07T10:11:16.963Z,34.96
2023-05-07T10:13:45.035Z,34.80
2023-05-07T10:16:12.318Z,34.70
2023-05-07T10:18:47.829Z,34.88
2023-05-07T10:21:22.727Z,34.44
2023-05-07T10:23:52.593Z,35.13
2023-05-07T10:26:21.667Z,34.65
2023-05-07T10:28:51.708Z,35.32
2023-05-07T10:31:31.146Z,35.94
2023-05-07T10:33:58.611Z,35.35
2023-05-07T10:36:26.586Z,35.06
2023-05-07T10:38:53.949Z,35.27
2023-05-07T10:41:22.310Z,35.10
2023-05-07T10:43:50.196Z,34.71
2023-05-07T10:46:24.884Z,34.22
2023-05-07T10:49:22.752Z,34.79
2023-05-07T10:52:21.593Z,34.73
2023-05-07T10:55:18.810Z,34.29
2023-05-07T10:57:52.351Z,34.87
2023-05-07T11:00:38.107Z,35.15
2023-05-07T11:03:09.228Z,34.85
2023-05-07T11:06:16.694Z,34.91
2023-05-07T11:09:00.644Z,34.57
2023-05-07T11:11:54.217Z,34.33
2023-05-07T11:14:43.807Z,33.77
2023-05-07T11:17:14.820Z,33.40
2023-05-07T11:19:52.596Z,33.49
2023-05-07T11:22:41.117Z,33.10
2023-05-07T11:25:24.519Z,33.49
2023-05-07T11:27:56.886Z,33.55
2023-05-07T11:30:24.246Z,33.87
2023-05-07T11:32:51.543Z,33.55
2023-05-07T11:35:19.067Z,33.12
2023-05-07T11:37:47.338Z,33.37
2023-05-07T11:40:15.522Z,33.37
2023-05-07T11:42:44.594Z,33.77
2023-05-07T11:45:12.534Z,33.25
2023-05-07T11:47:40.089Z,33.07
2023-05-07T11:50:09.558Z,33.75
2023-05-07T11:52:37.004Z,33.79
2023-05-07T11:55:05.775Z,33.42
2023-05-07T11:57:34.183Z,33.52
2023-05-07T12:00:03.080Z,33.73
2023-05-07T12:02:40.017Z,33.75
2023-05-07T12:05:07.964Z,33.05
2023-05-07T12:07:35.845Z,32.80
2023-05-07T12:10:07.965Z,33.14
2023-05-07T12:12:47.439Z,31.91
2023-05-07T12:15:18.245Z,32.35
2023-05-07T12:17:45.520Z,33.25
2023-05-07T12:20:13.269Z,33.14
2023-05-07T12:22:40.531Z,32.84
2023-05-07T12:25:08.535Z,32.48
2023-05-07T12:27:38.330Z,32.39
2023-05-07T12:30:06.885Z,32.74
2023-05-07T12:32:38.094Z,32.75
2023-05-07T12:35:07.779Z,33.28
2023-05-07T12:37:34.907Z,33.66
2023-05-07T12:40:11.818Z,33.58
2023-05-07T12:42:40.817Z,32.13
2023-05-07T12:45:17.495Z,32.02
2023-05-07T12:47:46.539Z,32.57
2023-05-07T12:50:17.208Z,33.07
2023-05-07T12:52:48.762Z,32.15
2023-05-07T12:55:16.931Z,31.84
2023-05-07T12:57:49.540Z,32.39
2023-05-07T13:00:17.215Z,32.40
2023-05-07T13:02:47.957Z,32.63
2023-05-07T13:05:15.270Z,32.90
2023-05-07T13:07:43.029Z,32.61
2023-05-07T13:10:10.793Z,32.61
2023-05-07T13:12:38.008Z,32.93
2023-05-07T13:15:05.851Z,32.90
2023-05-07T13:17:33.199Z,33.28
2023-05-07T13:20:00.537Z,33.00
2023-05-07T13:22:27.785Z,33.03
2023-05-07T13:24:55.144Z,32.92
2023-05-07T13:27:22.512Z,33.30
2023-05-07T13:29:49.653Z,33.47
2023-05-07T13:32:16.900Z,33.51
2023-05-07T13:34:44.367Z,33.33
2023-05-07T13:37:12.339Z,33.25
2023-05-07T13:39:39.606Z,33.31
2023-05-07T13:42:06.745Z,33.43
2023-05-07T13:44:34.506Z,33.45
2023-05-07T13:47:01.898Z,33.55
2023-05-07T13:49:29.668Z,33.78
2023-05-07T13:51:57.097Z,33.37
2023-05-07T13:54:25.071Z,33.68
2023-05-07T13:56:52.319Z,33.76
2023-05-07T13:59:19.476Z,33.75
2023-05-07T14:01:46.625Z,33.82
2023-05-07T14:04:13.820Z,34.28
2023-05-07T14:06:41.151Z,34.12
2023-05-07T14:09:08.391Z,34.23
2023-05-07T14:11:36.389Z,34.47
2023-05-07T14:14:03.720Z,34.78
2023-05-07T14:16:31.025Z,34.14
2023-05-07T14:18:58.815Z,34.09
2023-05-07T14:21:26.607Z,33.65
2023-05-07T14:23:53.770Z,33.84
2023-05-07T14:26:21.940Z,34.22
2023-05-07T14:28:49.095Z,34.15
2023-05-07T14:31:16.489Z,34.53
2023-05-07T14:33:43.706Z,34.32
2023-05-07T14:36:10.857Z,34.65
2023-05-07T14:38:38.005Z,35.38
2023-05-07T14:41:05.162Z,34.89
2023-05-07T14:43:32.314Z,35.25
2023-05-07T14:45:59.830Z,35.91
2023-05-07T14:48:27.034Z,35.63
2023-05-07T14:50:54.185Z,35.75
2023-05-07T14:53:21.335Z,36.01
2023-05-07T14:55:49.110Z,35.98
2023-05-07T14:58:16.255Z,35.44
2023-05-07T15:00:43.513Z,35.18
2023-05-07T15:03:11.543Z,35.25
2023-05-07T15:05:43.049Z,35.71
2023-05-07T15:08:10.734Z,35.49
2023-05-07T15:10:42.215Z,35.34
2023-05-07T15:13:13.435Z,35.57
2023-05-07T15:15:43.215Z,35.96
2023-05-07T15:18:10.383Z,36.30
2023-05-07T15:20:37.843Z,36.02
2023-05-07T15:23:06.934Z,35.65
2023-05-07T15:25:35.101Z,35.94
2023-05-07T15:28:02.386Z,36.19
2023-05-07T15:30:30.226Z,36.54
2023-05-07T15:32:57.432Z,36.00
2023-05-07T15:35:26.684Z,35.73
2023-05-07T15:37:54.251Z,35.89
2023-05-07T15:40:21.403Z,35.59
2023-05-07T15:42:48.652Z,35.72
2023-05-07T15:45:16.430Z,36.20
2023-05-07T15:47:43.731Z,36.27
2023-05-07T15:50:11.516Z,35.89
2023-05-07T15:52:39.716Z,36.14
2023-05-07T15:55:07.863Z,35.41
2023-05-07T15:57:35.153Z,36.00
2023-05-07T16:00:04.060Z,36.69
2023-05-07T16:02:40.147Z,36.83
2023-05-07T16:05:11.040Z,36.06
2023-05-07T16:07:38.508Z,35.77
2023-05-07T16:10:06.222Z,36.69
2023-05-07T16:12:33.332Z,36.77
2023-05-07T16:15:01.294Z,36.76
2023-05-07T16:17:28.516Z,37.02
2023-05-07T16:19:55.909Z,36.99
2023-05-07T16:22:25.415Z,36.34
2023-05-07T16:24:52.876Z,36.37
2023-05-07T16:27:20.025Z,36.32
2023-05-07T16:29:47.179Z,36.82
2023-05-07T16:32:14.350Z,37.05
2023-05-07T16:34:41.894Z,37.04
2023-05-07T16:37:09.067Z,37.16
2023-05-07T16:39:36.172Z,36.98
2023-05-07T16:42:03.350Z,36.79
2023-05-07T16:44:30.503Z,36.61
2023-05-07T16:46:58.885Z,36.87
2023-05-07T16:49:26.138Z,37.28
2023-05-07T16:51:54.012Z,36.90
2023-05-07T16:54:21.168Z,37.45
2023-05-07T16:56:48.643Z,37.69
2023-05-07T16:59:15.875Z,37.51
2023-05-07T17:01:43.043Z,37.80
2023-05-07T17:04:10.349Z,37.87
2023-05-07T17:06:37.541Z,37.51
2023-05-07T17:09:04.788Z,37.50
2023-05-07T17:11:34.164Z,37.74
2023-05-07T17:14:02.925Z,37.82
2023-05-07T17:16:31.431Z,37.54
2023-05-07T17:18:58.756Z,37.90
2023-05-07T17:21:25.885Z,38.44
2023-05-07T17:23:53.237Z,38.50
2023-05-07T17:26:21.515Z,38.21
2023-05-07T17:28:48.668Z,38.40
2023-05-07T17:31:16.219Z,38.32
2023-05-07T17:33:43.391Z,38.56
2023-05-07T17:36:10.545Z,38.90
2023-05-07T17:38:37.816Z,39.26
2023-05-07T17:41:04.954Z,38.72
2023-05-07T17:43:32.090Z,39.07
2023-05-07T17:45:59.685Z,39.06
2023-05-07T17:48:26.910Z,38.74
2023-05-07T17:50:54.266Z,38.95
2023-05-07T17:53:24.498Z,39.17
2023-05-07T17:55:52.873Z,39.35
2023-05-07T17:58:20.127Z,39.14
2023-05-07T18:00:47.280Z,38.90
2023-05-07T18:03:15.437Z,38.73
2023-05-07T18:05:43.883Z,38.66
2023-05-07T18:08:12.217Z,38.85
2023-05-07T18:10:39.378Z,38.92
2023-05-07T18:13:06.569Z,39.13
2023-05-07T18:15:33.776Z,39.13
2023-05-07T18:18:01.318Z,38.84
2023-05-07T18:20:28.488Z,38.97
2023-05-07T18:22:55.649Z,38.86
2023-05-07T18:25:22.899Z,38.63
2023-05-07T18:27:50.050Z,38.74
2023-05-07T18:30:17.203Z,38.69
2023-05-07T18:32:44.430Z,38.73
2023-05-07T18:35:11.720Z,38.68
2023-05-07T18:37:38.864Z,38.26
2023-05-07T18:40:06.742Z,38.31
2023-05-07T18:42:37.120Z,38.51
2023-05-07T18:45:06.704Z,38.71
2023-05-07T18:47:33.845Z,38.73
2023-05-07T18:50:01.284Z,38.61
2023-05-07T18:52:29.475Z,38.52
2023-05-07T18:54:56.945Z,38.58
2023-05-07T18:57:24.275Z,38.38
2023-05-07T18:59:55.217Z,38.14
2023-05-07T19:02:22.808Z,38.41
2023-05-07T19:04:50.067Z,37.99
2023-05-07T19:07:17.495Z,37.95
2023-05-07T19:09:57.206Z,37.95
2023-05-07T19:12:31.163Z,37.73
2023-05-07T19:14:58.302Z,37.61
2023-05-07T19:17:25.490Z,38.25
2023-05-07T19:19:52.835Z,38.01
2023-05-07T19:22:19.976Z,37.84
2023-05-07T19:24:47.120Z,37.82
2023-05-07T19:27:14.277Z,38.03
2023-05-07T19:29:41.430Z,38.24
2023-05-07T19:32:08.695Z,38.18
2023-05-07T19:34:36.249Z,38.51
2023-05-07T19:37:04.211Z,38.23
2023-05-07T19:39:31.363Z,38.31
2023-05-07T19:41:58.517Z,38.15
2023-05-07T19:44:25.674Z,38.40
2023-05-07T19:46:53.026Z,38.15
2023-05-07T19:49:20.180Z,38.46
2023-05-07T19:51:47.326Z,38.27
2023-05-07T19:54:14.482Z,38.36
2023-05-07T19:56:42.250Z,38.17
2023-05-07T19:59:09.404Z,38.41
2023-05-07T20:01:36.928Z,38.25
2023-05-07T20:04:04.382Z,38.35
2023-05-07T20:06:31.681Z,38.16
2023-05-07T20:08:58.828Z,38.41
2023-05-07T20:11:25.982Z,38.23
2023-05-07T20:13:53.045Z,38.61
2023-05-07T20:16:20.259Z,38.48
2023-05-07T20:18:47.440Z,38.23
2023-05-07T20:21:14.904Z,38.05
2023-05-07T20:23:42.050Z,37.91
2023-05-07T20:26:09.225Z,38.18
2023-05-07T20:28:36.454Z,38.58
2023-05-07T20:31:03.924Z,38.24
2023-05-07T20:33:31.270Z,38.27
2023-05-07T20:35:59.248Z,38.47
2023-05-07T20:38:27.528Z,38.52
2023-05-07T20:40:54.679Z,38.65
2023-05-07T20:43:22.046Z,38.68
2023-05-07T20:45:59.512Z,38.22
2023-05-07T20:51:24.856Z,38.12
2023-05-07T20:53:51.904Z,38.04
2023-05-07T20:56:19.570Z,38.02
2023-05-07T20:58:46.517Z,38.02
2023-05-07T21:01:13.830Z,38.19
2023-05-07T21:03:40.813Z,38.21
2023-05-07T21:06:07.867Z,38.46
2023-05-07T21:08:35.346Z,38.56
2023-05-07T21:11:02.684Z,38.35
2023-05-07T21:13:29.908Z,38.45
2023-05-07T21:15:56.987Z,38.59
2023-05-07T21:18:26.190Z,38.43
2023-05-07T21:20:53.046Z,38.51
2023-05-07T21:23:20.181Z,38.70
2023-05-07T21:25:47.852Z,38.92
2023-05-07T21:28:14.796Z,39.02
2023-05-07T21:30:41.754Z,39.17
2023-05-07T21:33:08.946Z,39.09
2023-05-07T21:35:36.322Z,39.18
2023-05-07T21:38:03.499Z,39.43
2023-05-07T21:40:30.554Z,39.29
2023-05-07T21:42:59.137Z,39.46
2023-05-07T21:45:26.184Z,39.87
2023-05-07T21:47:53.384Z,39.97
2023-05-07T21:50:21.538Z,39.93
2023-05-07T21:52:48.771Z,40.22
2023-05-07T21:55:17.151Z,40.13
2023-05-07T21:57:50.787Z,40.04
2023-05-07T22:00:24.970Z,40.32
2023-05-07T22:02:52.049Z,40.70
2023-05-07T22:05:19.374Z,40.77
2023-05-07T22:07:46.322Z,40.52
2023-05-07T22:10:13.707Z,40.40
2023-05-07T22:12:41.255Z,40.38
2023-05-07T22:15:08.964Z,40.16
2023-05-07T22:17:35.991Z,40.24
2023-05-07T22:20:03.210Z,40.17
2023-05-07T22:22:30.665Z,40.42
2023-05-07T22:24:57.611Z,42.02
2023-05-07T22:27:24.562Z,42.08
2023-05-07T22:29:53.145Z,41.50
2023-05-07T22:32:20.434Z,41.25
2023-05-07T22:34:47.411Z,41.27
2023-05-07T22:37:14.398Z,41.57
2023-05-07T22:39:41.652Z,41.86
2023-05-07T22:42:08.821Z,42.27
2023-05-07T22:44:35.822Z,42.97
2023-05-07T22:47:03.012Z,42.92
2023-05-07T22:49:30.054Z,42.63
2023-05-07T22:51:57.001Z,43.07
2023-05-07T22:54:25.587Z,43.31
2023-05-07T22:56:53.053Z,43.08
2023-05-07T22:59:20.200Z,43.21
2023-05-07T23:01:48.274Z,42.64
2023-05-07T23:04:15.326Z,42.41
2023-05-07T23:06:42.274Z,42.44
2023-05-07T23:09:09.801Z,42.40
2023-05-07T23:11:37.070Z,42.33
2023-05-07T23:14:04.036Z,42.03
2023-05-07T23:16:31.668Z,41.87
2023-05-07T23:18:58.648Z,42.10
2023-05-07T23:21:25.695Z,42.15
2023-05-07T23:23:53.575Z,42.01
2023-05-07T23:26:20.818Z,41.78
2023-05-07T23:28:47.972Z,42.09
2023-05-07T23:31:15.108Z,41.83
2023-05-07T23:33:42.067Z,42.10
2023-05-07T23:36:09.221Z,42.11
2023-05-07T23:38:36.786Z,42.38
2023-05-07T23:41:03.830Z,42.41
2023-05-07T23:43:30.981Z,42.45
2023-05-07T23:45:58.087Z,42.71
2023-05-07T23:48:25.292Z,42.60
2023-05-07T23:50:52.234Z,42.37
2023-05-07T23:53:19.289Z,42.67
2023-05-07T23:55:46.740Z,42.39
2023-05-07T23:58:13.896Z,42.19
